createdAt,value
2017-07-30T00:02:11.530Z,100335.61
2017-07-30T00:04:39.115Z,100335.02
2017-07-30T00:07:06.791Z,100336.91
2017-07-30T00:09:34.398Z,100323.17
2017-07-30T00:12:02.019Z,100321.20
2017-07-30T00:14:29.663Z,100315.28
2017-07-30T00:16:57.277Z,100311.72
2017-07-30T00:19:24.870Z,100308.80
2017-07-30T00:21:52.507Z,100307.65
2017-07-30T00:24:20.107Z,100311.17
2017-07-30T00:26:47.735Z,100303.09
2017-07-30T00:29:15.334Z,100300.94
2017-07-30T00:31:42.964Z,100311.94
2017-07-30T00:34:10.562Z,100300.50
2017-07-30T00:36:38.235Z,100301.27
2017-07-30T00:39:05.906Z,100293.42
2017-07-30T00:41:33.526Z,100288.86
2017-07-30T00:44:01.118Z,100292.19
2017-07-30T00:46:28.770Z,100292.11
2017-07-30T00:48:56.366Z,100287.22
2017-07-30T00:51:23.984Z,100289.28
2017-07-30T00:53:51.573Z,100282.50
2017-07-30T00:56:19.201Z,100273.38
2017-07-30T00:58:46.813Z,100273.33
2017-07-30T01:01:14.450Z,100273.89
2017-07-30T01:03:42.059Z,100262.38
2017-07-30T01:06:09.709Z,100254.91
2017-07-30T01:08:37.310Z,100267.55
2017-07-30T01:11:04.906Z,100266.00
2017-07-30T01:13:32.550Z,100261.30
2017-07-30T01:16:00.213Z,100263.99
2017-07-30T01:18:27.838Z,100261.62
2017-07-30T01:20:55.480Z,100255.18
2017-07-30T01:23:23.093Z,100243.38
2017-07-30T01:25:50.687Z,100254.95
2017-07-30T01:28:18.314Z,100233.05
2017-07-30T01:30:45.990Z,100237.08
2017-07-30T01:33:13.623Z,100238.67
2017-07-30T01:35:41.219Z,100234.70
2017-07-30T01:38:08.828Z,100234.66
2017-07-30T01:40:36.411Z,100233.66
2017-07-30T01:43:04.050Z,100236.55
2017-07-30T01:45:31.646Z,100232.63
2017-07-30T01:47:59.262Z,100228.15
2017-07-30T01:50:26.854Z,100238.28
2017-07-30T01:52:54.467Z,100244.34
2017-07-30T01:55:22.086Z,100246.94
2017-07-30T01:57:49.721Z,100244.94
2017-07-30T02:00:17.305Z,100240.97
2017-07-30T02:02:44.945Z,100245.52
2017-07-30T02:05:12.654Z,100239.78
2017-07-30T02:07:40.260Z,100237.31
2017-07-30T02:10:07.902Z,100229.42
2017-07-30T02:12:35.535Z,100225.61
2017-07-30T02:15:03.176Z,100217.36
2017-07-30T02:17:30.794Z,100210.52
2017-07-30T02:19:58.406Z,100215.25
2017-07-30T02:22:26.061Z,100212.11
2017-07-30T02:24:53.669Z,100212.70
2017-07-30T02:27:21.282Z,100209.48
2017-07-30T02:29:48.914Z,100215.38
2017-07-30T02:32:16.606Z,100209.72
2017-07-30T02:34:44.206Z,100200.69
2017-07-30T02:37:11.848Z,100204.61
2017-07-30T02:39:39.442Z,100198.73
2017-07-30T02:42:07.066Z,100203.61
2017-07-30T02:44:34.699Z,100208.20
2017-07-30T02:47:02.334Z,100210.31
2017-07-30T02:49:29.943Z,100202.02
2017-07-30T02:51:57.627Z,100193.55
2017-07-30T02:54:25.256Z,100186.00
2017-07-30T02:56:52.888Z,100188.89
2017-07-30T02:59:20.482Z,100184.92
2017-07-30T03:01:48.099Z,100176.80
2017-07-30T03:04:15.699Z,100169.95
2017-07-30T03:06:43.364Z,100171.66
2017-07-30T03:09:10.970Z,100169.69
2017-07-30T03:11:38.566Z,100176.16
2017-07-30T03:14:06.186Z,100165.18
2017-07-30T03:16:33.774Z,100166.36
2017-07-30T03:19:01.390Z,100164.62
2017-07-30T03:21:29.038Z,100162.44
2017-07-30T03:23:56.661Z,100156.06
2017-07-30T03:26:24.364Z,100163.73
2017-07-30T03:28:52.010Z,100161.10
2017-07-30T03:31:19.603Z,100152.25
2017-07-30T03:33:47.226Z,100155.49
2017-07-30T03:36:14.823Z,100151.45
2017-07-30T03:38:42.470Z,100151.69
2017-07-30T03:41:10.072Z,100155.59
2017-07-30T03:43:37.708Z,100157.34
2017-07-30T03:46:05.295Z,100151.49
2017-07-30T03:48:32.986Z,100154.14
2017-07-30T03:51:00.573Z,100148.58
2017-07-30T03:53:28.267Z,100148.58
2017-07-30T03:55:55.874Z,100147.91
2017-07-30T03:58:23.509Z,100154.96
2017-07-30T04:00:51.169Z,100148.72
2017-07-30T04:03:18.805Z,100142.39
2017-07-30T04:05:46.397Z,100152.37
2017-07-30T04:08:14.019Z,100150.19
2017-07-30T04:10:41.609Z,100153.00
2017-07-30T04:13:09.262Z,100151.50
2017-07-30T04:15:36.858Z,100152.09
2017-07-30T04:18:04.463Z,100157.59
2017-07-30T04:20:32.081Z,100151.91
2017-07-30T04:22:59.735Z,100147.76
2017-07-30T04:25:27.307Z,100147.47
2017-07-30T04:27:54.903Z,100149.22
2017-07-30T04:30:22.550Z,100155.04
2017-07-30T04:32:50.147Z,100148.03
2017-07-30T04:35:17.778Z,100155.53
2017-07-30T04:37:45.379Z,100152.20
2017-07-30T04:40:12.990Z,100152.28
2017-07-30T04:42:40.602Z,100150.14
2017-07-30T04:45:08.224Z,100150.74
2017-07-30T04:47:35.818Z,100153.55
2017-07-30T04:50:03.448Z,100159.19
2017-07-30T04:52:31.031Z,100151.86
2017-07-30T04:54:58.778Z,100146.75
2017-07-30T04:57:26.382Z,100148.77
2017-07-30T04:59:53.990Z,100158.30
2017-07-30T05:02:21.651Z,100159.43
2017-07-30T05:04:49.283Z,100154.06
2017-07-30T05:07:16.933Z,100159.45
2017-07-30T05:09:44.585Z,100156.34
2017-07-30T05:12:12.245Z,100159.00
2017-07-30T05:14:39.839Z,100152.31
2017-07-30T05:17:07.554Z,100158.47
2017-07-30T05:19:35.159Z,100158.11
2017-07-30T05:22:02.776Z,100160.98
2017-07-30T05:24:30.362Z,100161.66
2017-07-30T05:26:57.983Z,100161.66
2017-07-30T05:29:25.578Z,100162.67
2017-07-30T05:31:53.224Z,100169.33
2017-07-30T05:34:20.819Z,100169.97
2017-07-30T05:36:48.450Z,100161.84
2017-07-30T05:39:16.038Z,100159.62
2017-07-30T05:41:43.654Z,100160.57
2017-07-30T05:44:11.255Z,100155.55
2017-07-30T05:46:38.882Z,100159.98
2017-07-30T05:49:06.477Z,100164.66
2017-07-30T05:51:34.119Z,100170.69
2017-07-30T05:54:01.720Z,100166.61
2017-07-30T05:56:29.370Z,100154.02
2017-07-30T05:58:56.994Z,100159.36
2017-07-30T06:01:24.619Z,100168.06
2017-07-30T06:03:52.229Z,100164.48
2017-07-30T06:06:19.872Z,100173.72
2017-07-30T06:08:47.477Z,100169.91
2017-07-30T06:11:15.077Z,100172.22
2017-07-30T06:13:42.706Z,100170.89
2017-07-30T06:16:10.291Z,100177.17
2017-07-30T06:18:37.915Z,100182.28
2017-07-30T06:21:05.515Z,100194.55
2017-07-30T06:23:33.139Z,100193.89
2017-07-30T06:26:00.726Z,100210.73
2017-07-30T06:28:28.375Z,100200.63
2017-07-30T06:30:55.975Z,100192.69
2017-07-30T06:33:23.609Z,100194.77
2017-07-30T06:35:51.197Z,100204.05
2017-07-30T06:38:18.836Z,100204.38
2017-07-30T06:40:46.432Z,100197.25
2017-07-30T06:43:14.086Z,100193.77
2017-07-30T06:45:41.694Z,100199.73
2017-07-30T06:48:09.323Z,100204.25
2017-07-30T06:50:36.926Z,100205.03
2017-07-30T06:53:04.567Z,100205.73
2017-07-30T06:55:32.153Z,100197.14
2017-07-30T06:57:59.794Z,100202.58
2017-07-30T07:00:27.398Z,100204.88
2017-07-30T07:02:55.025Z,100212.86
2017-07-30T07:05:22.637Z,100220.61
2017-07-30T07:07:50.262Z,100221.23
2017-07-30T07:10:17.866Z,100217.56
2017-07-30T07:12:45.575Z,100220.34
2017-07-30T07:15:13.198Z,100222.60
2017-07-30T07:17:40.846Z,100216.53
2017-07-30T07:20:08.490Z,100219.59
2017-07-30T07:22:36.083Z,100228.81
2017-07-30T07:25:03.703Z,100220.44
2017-07-30T07:27:31.298Z,100226.66
2017-07-30T07:29:58.919Z,100219.44
2017-07-30T07:32:26.572Z,100221.62
2017-07-30T07:34:54.201Z,100214.88
2017-07-30T07:37:21.801Z,100210.57
2017-07-30T07:39:49.423Z,100218.17
2017-07-30T07:42:17.007Z,100222.44
2017-07-30T07:44:44.641Z,100224.73
2017-07-30T07:47:12.252Z,100223.18
2017-07-30T07:49:39.882Z,100227.81
2017-07-30T07:52:07.484Z,100230.08
2017-07-30T07:54:35.171Z,100208.61
2017-07-30T07:57:02.786Z,100229.57
2017-07-30T07:59:30.458Z,100215.95
2017-07-30T08:01:58.042Z,100224.16
2017-07-30T08:04:25.681Z,100225.42
2017-07-30T08:06:53.275Z,100227.94
2017-07-30T08:09:20.905Z,100220.75
2017-07-30T08:11:48.522Z,100236.11
2017-07-30T08:14:16.198Z,100236.48
2017-07-30T08:16:43.798Z,100244.37
2017-07-30T08:19:11.390Z,100237.94
2017-07-30T08:21:39.018Z,100248.20
2017-07-30T08:24:06.620Z,100241.81
2017-07-30T08:26:34.246Z,100244.75
2017-07-30T08:29:01.886Z,100260.61
2017-07-30T08:31:29.528Z,100256.15
2017-07-30T08:33:57.125Z,100255.58
2017-07-30T08:36:24.756Z,100247.09
2017-07-30T08:38:52.371Z,100256.20
2017-07-30T08:41:20.027Z,100257.36
2017-07-30T08:43:47.622Z,100254.24
2017-07-30T08:46:15.242Z,100260.48
2017-07-30T08:48:42.858Z,100265.73
2017-07-30T08:51:10.492Z,100265.97
2017-07-30T08:53:38.092Z,100261.48
2017-07-30T08:56:05.774Z,100257.92
2017-07-30T08:58:33.375Z,100256.93
2017-07-30T09:01:00.973Z,100251.95
2017-07-30T09:03:28.591Z,100253.48
2017-07-30T09:05:56.189Z,100242.12
2017-07-30T09:08:23.824Z,100246.25
2017-07-30T09:10:51.416Z,100256.38
2017-07-30T09:13:19.047Z,100242.20
2017-07-30T09:15:46.654Z,100243.67
2017-07-30T09:18:14.293Z,100244.16
2017-07-30T09:20:41.906Z,100247.74
2017-07-30T09:23:09.534Z,100243.27
2017-07-30T09:25:37.166Z,100253.30
2017-07-30T09:28:04.833Z,100240.48
2017-07-30T09:30:32.475Z,100257.80
2017-07-30T09:33:00.066Z,100250.75
2017-07-30T09:35:27.697Z,100254.95
2017-07-30T09:37:55.293Z,100266.00
2017-07-30T09:40:23.002Z,100259.17
2017-07-30T09:42:50.647Z,100264.16
2017-07-30T09:45:18.248Z,100265.21
2017-07-30T09:47:45.875Z,100264.86
2017-07-30T09:50:13.505Z,100266.16
2017-07-30T09:52:41.107Z,100277.03
2017-07-30T09:55:08.734Z,100275.05
2017-07-30T09:57:36.334Z,100282.47
2017-07-30T10:00:03.943Z,100272.86
2017-07-30T10:02:31.646Z,100271.98
2017-07-30T10:04:59.274Z,100275.95
2017-07-30T10:07:26.873Z,100266.98
2017-07-30T10:09:54.515Z,100263.36
2017-07-30T10:12:22.122Z,100270.22
2017-07-30T10:14:49.763Z,100267.61
2017-07-30T10:17:17.446Z,100270.47
2017-07-30T10:19:45.083Z,100276.39
2017-07-30T10:22:12.727Z,100268.69
2017-07-30T10:24:40.344Z,100274.91
2017-07-30T10:27:07.950Z,100275.34
2017-07-30T10:29:35.582Z,100274.11
2017-07-30T10:32:03.418Z,100269.73
2017-07-30T10:34:31.043Z,100272.92
2017-07-30T10:36:58.647Z,100284.86
2017-07-30T10:39:26.298Z,100288.02
2017-07-30T10:41:53.910Z,100285.48
2017-07-30T10:44:21.562Z,100287.34
2017-07-30T10:46:49.417Z,100293.84
2017-07-30T10:49:17.083Z,100302.42
2017-07-30T10:51:44.687Z,100287.98
2017-07-30T10:54:12.314Z,100307.19
2017-07-30T10:56:39.918Z,100290.27
2017-07-30T10:59:07.547Z,100291.70
2017-07-30T11:01:35.214Z,100290.63
2017-07-30T11:04:02.836Z,100302.94
2017-07-30T11:06:30.458Z,100306.80
2017-07-30T11:08:58.051Z,100286.89
2017-07-30T11:11:25.680Z,100301.84
2017-07-30T11:13:53.282Z,100313.65
2017-07-30T11:16:20.902Z,100297.70
2017-07-30T11:18:48.534Z,100301.97
2017-07-30T11:21:16.162Z,100316.09
2017-07-30T11:23:43.794Z,100317.38
2017-07-30T11:26:11.430Z,100318.73
2017-07-30T11:28:39.038Z,100313.46
2017-07-30T11:31:06.671Z,100329.44
2017-07-30T11:33:34.286Z,100315.36
2017-07-30T11:36:01.921Z,100319.94
2017-07-30T11:38:29.542Z,100325.66
2017-07-30T11:40:57.178Z,100334.27
2017-07-30T11:43:24.805Z,100339.66
2017-07-30T11:45:52.447Z,100341.28
2017-07-30T11:48:20.062Z,100368.31
2017-07-30T11:50:47.691Z,100341.98
2017-07-30T11:53:15.286Z,100356.36
2017-07-30T11:55:42.930Z,100344.30
2017-07-30T11:58:10.519Z,100350.48
2017-07-30T12:00:38.131Z,100370.03
2017-07-30T12:03:05.769Z,100382.52
2017-07-30T12:05:33.419Z,100373.59
2017-07-30T12:08:01.010Z,100395.14
2017-07-30T12:10:28.630Z,100366.14
2017-07-30T12:12:56.223Z,100369.97
2017-07-30T12:15:23.902Z,100371.73
2017-07-30T12:17:51.521Z,100374.14
2017-07-30T12:20:19.127Z,100401.28
2017-07-30T12:22:46.760Z,100374.83
2017-07-30T12:25:14.429Z,100380.22
2017-07-30T12:27:42.021Z,100384.83
2017-07-30T12:30:09.628Z,100379.74
2017-07-30T12:32:37.253Z,100376.34
2017-07-30T12:35:04.878Z,100383.17
2017-07-30T12:37:32.463Z,100377.39
2017-07-30T12:40:00.075Z,100371.59
2017-07-30T12:42:27.686Z,100373.64
2017-07-30T12:44:55.337Z,100384.55
2017-07-30T12:47:22.955Z,100387.92
2017-07-30T12:49:50.548Z,100376.45
2017-07-30T12:52:18.211Z,100377.39
2017-07-30T12:54:45.848Z,100380.42
2017-07-30T12:57:13.467Z,100380.67
2017-07-30T12:59:41.070Z,100384.08
2017-07-30T13:02:08.771Z,100383.68
2017-07-30T13:04:36.395Z,100379.23
2017-07-30T13:07:04.068Z,100389.37
2017-07-30T13:09:31.678Z,100394.42
2017-07-30T13:11:59.298Z,100377.28
2017-07-30T13:14:26.894Z,100395.92
2017-07-30T13:16:54.534Z,100401.63
2017-07-30T13:19:22.155Z,100384.59
2017-07-30T13:21:49.799Z,100396.42
2017-07-30T13:24:17.419Z,100393.09
2017-07-30T13:26:45.053Z,100401.73
2017-07-30T13:29:12.656Z,100387.95
2017-07-30T13:31:40.495Z,100398.46
2017-07-30T13:34:08.095Z,100403.25
2017-07-30T13:36:35.718Z,100403.49
2017-07-30T13:39:03.334Z,100407.84
2017-07-30T13:41:30.954Z,100395.23
2017-07-30T13:43:58.554Z,100398.53
2017-07-30T13:46:26.206Z,100395.83
2017-07-30T13:48:53.800Z,100400.20
2017-07-30T13:51:21.448Z,100408.89
2017-07-30T13:53:49.059Z,100409.06
2017-07-30T13:56:16.696Z,100411.01
2017-07-30T13:58:44.298Z,100400.73
2017-07-30T14:01:12.015Z,100396.06
2017-07-30T14:03:39.860Z,100408.61
2017-07-30T14:06:07.480Z,100401.36
2017-07-30T14:08:35.091Z,100405.67
2017-07-30T14:11:02.732Z,100399.66
2017-07-30T14:13:30.328Z,100403.25
2017-07-30T14:15:58.617Z,100414.84
2017-07-30T14:18:26.230Z,100408.94
2017-07-30T14:20:53.840Z,100405.76
2017-07-30T14:23:21.502Z,100409.43
2017-07-30T14:25:49.123Z,100412.44
2017-07-30T14:28:16.810Z,100409.53
2017-07-30T14:30:44.426Z,100422.77
2017-07-30T14:33:12.062Z,100425.04
2017-07-30T14:35:39.674Z,100420.20
2017-07-30T14:38:07.295Z,100425.48
2017-07-30T14:40:34.905Z,100417.36
2017-07-30T14:43:02.534Z,100433.18
2017-07-30T14:45:30.138Z,100429.15
2017-07-30T14:47:57.859Z,100424.58
2017-07-30T14:50:25.450Z,100412.81
2017-07-30T14:52:53.094Z,100416.22
2017-07-30T14:55:20.697Z,100416.98
2017-07-30T14:57:48.329Z,100408.34
2017-07-30T15:00:15.939Z,100411.45
2017-07-30T15:02:45.078Z,100413.48
2017-07-30T15:05:12.701Z,100412.31
2017-07-30T15:07:40.399Z,100410.28
2017-07-30T15:10:08.151Z,100405.84
2017-07-30T15:12:35.817Z,100414.70
2017-07-30T15:15:03.451Z,100401.72
2017-07-30T15:17:31.081Z,100406.43
2017-07-30T15:19:58.684Z,100403.68
2017-07-30T15:22:26.342Z,100421.84
2017-07-30T15:24:53.949Z,100417.51
2017-07-30T15:27:21.576Z,100406.24
2017-07-30T15:29:49.206Z,100408.02
2017-07-30T15:32:16.823Z,100424.02
2017-07-30T15:34:44.426Z,100417.45
2017-07-30T15:37:12.060Z,100425.50
2017-07-30T15:39:39.668Z,100420.99
2017-07-30T15:42:07.324Z,100414.00
2017-07-30T15:44:34.946Z,100413.51
2017-07-30T15:47:02.566Z,100424.19
2017-07-30T15:49:30.216Z,100423.02
2017-07-30T15:51:57.835Z,100417.23
2017-07-30T15:54:25.477Z,100407.63
2017-07-30T15:56:53.078Z,100399.32
2017-07-30T15:59:20.723Z,100404.44
2017-07-30T16:01:48.360Z,100417.69
2017-07-30T16:04:16.003Z,100403.88
2017-07-30T16:06:43.599Z,100415.09
2017-07-30T16:09:11.232Z,100408.22
2017-07-30T16:11:38.834Z,100423.61
2017-07-30T16:14:06.478Z,100422.75
2017-07-30T16:16:34.266Z,100425.66
2017-07-30T16:19:01.945Z,100425.91
2017-07-30T16:21:29.558Z,100430.13
2017-07-30T16:23:57.225Z,100438.99
2017-07-30T16:26:24.946Z,100438.42
2017-07-30T16:28:54.267Z,100425.98
2017-07-30T16:31:21.855Z,100426.58
2017-07-30T16:33:49.507Z,100432.69
2017-07-30T16:36:17.129Z,100435.86
2017-07-30T16:38:44.726Z,100434.47
2017-07-30T16:41:12.368Z,100431.30
2017-07-30T16:43:39.979Z,100437.61
2017-07-30T16:46:07.612Z,100442.09
2017-07-30T16:48:35.247Z,100435.83
2017-07-30T16:51:03.042Z,100441.36
2017-07-30T16:53:30.685Z,100437.72
2017-07-30T16:55:58.350Z,100437.16
2017-07-30T16:58:25.990Z,100439.94
2017-07-30T17:00:53.630Z,100439.91
2017-07-30T17:03:21.239Z,100440.23
2017-07-30T17:05:48.897Z,100450.15
2017-07-30T17:08:16.655Z,100445.73
2017-07-30T17:10:44.262Z,100441.98
2017-07-30T17:13:11.959Z,100442.86
2017-07-30T17:15:39.551Z,100449.43
2017-07-30T17:18:07.175Z,100455.66
2017-07-30T17:20:34.782Z,100449.09
2017-07-30T17:23:02.407Z,100448.01
2017-07-30T17:25:29.999Z,100445.86
2017-07-30T17:27:57.629Z,100442.17
2017-07-30T17:30:25.418Z,100440.36
2017-07-30T17:32:53.056Z,100439.75
2017-07-30T17:35:20.668Z,100448.77
2017-07-30T17:37:48.345Z,100441.60
2017-07-30T17:40:15.951Z,100440.95
2017-07-30T17:42:43.651Z,100441.62
2017-07-30T17:45:11.249Z,100448.64
2017-07-30T17:47:38.894Z,100456.59
2017-07-30T17:50:06.497Z,100463.14
2017-07-30T17:52:34.114Z,100467.69
2017-07-30T17:55:02.117Z,100469.73
2017-07-30T17:57:29.969Z,100473.38
2017-07-30T17:59:57.566Z,100482.33
2017-07-30T18:02:25.171Z,100488.61
2017-07-30T18:04:52.802Z,100488.73
2017-07-30T18:07:20.447Z,100485.33
2017-07-30T18:09:48.074Z,100491.52
2017-07-30T18:12:15.716Z,100484.39
2017-07-30T18:14:43.315Z,100484.98
2017-07-30T18:17:10.963Z,100493.05
2017-07-30T18:19:38.655Z,100493.77
2017-07-30T18:22:06.616Z,100483.59
2017-07-30T18:24:34.270Z,100493.53
2017-07-30T18:27:01.943Z,100489.76
2017-07-30T18:29:29.543Z,100485.73
2017-07-30T18:31:57.178Z,100488.06
2017-07-30T18:34:24.805Z,100494.06
2017-07-30T18:36:52.434Z,100498.08
2017-07-30T18:39:20.044Z,100498.05
2017-07-30T18:41:47.689Z,100498.98
2017-07-30T18:44:15.274Z,100500.30
2017-07-30T18:46:42.909Z,100512.91
2017-07-30T18:49:10.507Z,100520.27
2017-07-30T18:51:38.191Z,100513.56
2017-07-30T18:54:05.810Z,100517.83
2017-07-30T18:56:33.429Z,100516.17
2017-07-30T18:59:01.078Z,100520.36
2017-07-30T19:01:28.683Z,100519.80
2017-07-30T19:03:56.315Z,100517.17
2017-07-30T19:06:23.914Z,100523.38
2017-07-30T19:08:51.562Z,100520.88
2017-07-30T19:11:19.185Z,100526.59
2017-07-30T19:13:46.999Z,100541.05
2017-07-30T19:16:14.620Z,100527.41
2017-07-30T19:18:42.219Z,100530.30
2017-07-30T19:21:09.861Z,100535.20
2017-07-30T19:23:37.494Z,100536.95
2017-07-30T19:26:05.139Z,100538.28
2017-07-30T19:28:32.726Z,100536.88
2017-07-30T19:31:00.390Z,100546.83
2017-07-30T19:33:27.979Z,100547.39
2017-07-30T19:35:55.615Z,100552.03
2017-07-30T19:38:23.218Z,100555.16
2017-07-30T19:40:50.853Z,100558.86
2017-07-30T19:43:18.449Z,100558.56
2017-07-30T19:45:46.073Z,100562.83
2017-07-30T19:48:13.766Z,100565.20
2017-07-30T19:50:41.564Z,100561.47
2017-07-30T19:53:09.228Z,100558.27
2017-07-30T19:55:36.822Z,100569.69
2017-07-30T19:58:04.457Z,100574.63
2017-07-30T20:00:32.067Z,100579.07
2017-07-30T20:02:59.719Z,100580.57
2017-07-30T20:05:27.310Z,100580.70
2017-07-30T20:07:54.995Z,100582.43
2017-07-30T20:10:22.601Z,100584.61
2017-07-30T20:12:50.341Z,100586.91
2017-07-30T20:15:17.928Z,100589.26
2017-07-30T20:17:45.578Z,100593.37
2017-07-30T20:20:13.179Z,100593.47
2017-07-30T20:22:40.806Z,100593.27
2017-07-30T20:25:08.430Z,100586.55
2017-07-30T20:27:36.065Z,100582.65
2017-07-30T20:30:03.634Z,100581.77
2017-07-30T20:32:31.266Z,100588.96
2017-07-30T20:34:59.038Z,100605.58
2017-07-30T20:37:26.604Z,100607.33
2017-07-30T20:39:54.264Z,100602.76
2017-07-30T20:42:21.912Z,100596.38
2017-07-30T20:44:49.614Z,100592.77
2017-07-30T20:47:17.253Z,100589.02
2017-07-30T20:49:44.915Z,100597.20
2017-07-30T20:52:12.534Z,100593.61
2017-07-30T20:54:40.190Z,100597.53
2017-07-30T20:57:07.814Z,100584.73
2017-07-30T20:59:35.586Z,100586.75
2017-07-30T21:02:03.225Z,100597.12
2017-07-30T21:04:30.919Z,100590.66
2017-07-30T21:06:58.530Z,100595.45
2017-07-30T21:09:26.316Z,100589.21
2017-07-30T21:11:53.954Z,100598.75
2017-07-30T21:14:21.594Z,100588.56
2017-07-30T21:16:49.214Z,100575.42
2017-07-30T21:19:16.871Z,100588.77
2017-07-30T21:21:44.507Z,100584.69
2017-07-30T21:24:12.165Z,100601.27
2017-07-30T21:26:39.771Z,100602.40
2017-07-30T21:29:07.547Z,100604.36
2017-07-30T21:31:35.324Z,100605.36
2017-07-30T21:34:02.964Z,100608.69
2017-07-30T21:36:30.572Z,100611.75
2017-07-30T21:38:58.236Z,100605.83
2017-07-30T21:41:25.826Z,100612.14
2017-07-30T21:43:53.490Z,100617.77
2017-07-30T21:46:21.162Z,100617.36
2017-07-30T21:48:48.774Z,100609.93
2017-07-30T21:51:16.404Z,100617.80
2017-07-30T21:53:44.185Z,100631.75
2017-07-30T21:56:11.791Z,100634.36
2017-07-30T21:58:39.544Z,100624.30
2017-07-30T22:01:07.151Z,100626.31
2017-07-30T22:03:34.752Z,100622.79
2017-07-30T22:06:02.460Z,100623.75
2017-07-30T22:08:30.067Z,100629.87
2017-07-30T22:10:57.700Z,100634.54
2017-07-30T22:13:25.670Z,100643.20
2017-07-30T22:15:53.619Z,100659.48
2017-07-30T22:18:21.223Z,100654.13
2017-07-30T22:20:48.868Z,100659.33
2017-07-30T22:23:16.474Z,100661.84
2017-07-30T22:25:44.120Z,100668.79
2017-07-30T22:28:11.722Z,100672.85
2017-07-30T22:30:39.375Z,100673.63
2017-07-30T22:33:06.978Z,100682.84
2017-07-30T22:35:34.647Z,100680.84
2017-07-30T22:38:02.273Z,100685.78
2017-07-30T22:40:29.963Z,100690.78
2017-07-30T22:42:57.550Z,100688.52
2017-07-30T22:45:25.177Z,100684.89
2017-07-30T22:47:52.782Z,100685.63
2017-07-30T22:50:20.403Z,100681.56
2017-07-30T22:52:48.006Z,100685.52
2017-07-30T22:55:15.878Z,100680.38
2017-07-30T22:57:43.489Z,100678.70
2017-07-30T23:00:11.157Z,100682.87
2017-07-30T23:02:38.745Z,100688.52
2017-07-30T23:05:06.491Z,100687.94
2017-07-30T23:07:34.090Z,100690.09
2017-07-30T23:10:01.726Z,100687.47
2017-07-30T23:12:29.345Z,100688.32
2017-07-30T23:14:56.991Z,100683.44
2017-07-30T23:17:24.598Z,100695.17
2017-07-30T23:19:52.227Z,100692.46
2017-07-30T23:22:19.832Z,100698.86
2017-07-30T23:24:47.467Z,100721.59
2017-07-30T23:27:15.127Z,100728.27
2017-07-30T23:29:42.834Z,100723.80
2017-07-30T23:32:10.421Z,100703.28
2017-07-30T23:34:38.024Z,100706.81
2017-07-30T23:37:05.655Z,100702.95
2017-07-30T23:39:33.267Z,100706.38
2017-07-30T23:42:00.910Z,100694.64
2017-07-30T23:44:28.498Z,100688.55
2017-07-30T23:46:56.145Z,100688.84
2017-07-30T23:49:23.750Z,100689.80
2017-07-30T23:51:51.377Z,100686.28
2017-07-30T23:54:18.963Z,100690.03
2017-07-30T23:56:46.592Z,100687.84
2017-07-30T23:59:14.186Z,100694.73
